Terminal Aerodrome Forecast
Issued by NWS Charleston, SC

Home | Current Version | Previous Version | Text Only | Print | Product List | Glossary On
Versions: 1 2 3 4 5 6 7 8 9 10 11 12 13
000
FTUS42 KCHS 060522
TAFCHS
TAF
KCHS 060522Z 0606/0706 04006KT P6SM FEW025 BKN250
     FM061500 06012G18KT P6SM SCT030 SCT050 BKN250
     FM070000 03009KT P6SM SCT025 BKN150=

USA.gov is the U.S. government's official web portal to all federal, state and local government web resources and services.